Time;durP1;ratioP1;P1;durP2;ratioP2;P2;SDS_P1;SDS_P2;PMS_P1;PMS_P2;Temp;Humidity;BMP_temperature;BMP_pressure;BME280_temperature;BME280_humidity;BME280_pressure;Samples;Min_cycle;Max_cycle;Signal;HPM_P1;HPM_P2
2022/04/18 00:02:23;;;;;;;3.40;1.73;;;7.30;96.30;;;;;;5098341;28;20182;-75
2022/04/18 00:04:48;;;;;;;2.53;1.70;;;7.30;1.00;;;;;;5098284;28;20258;-75
2022/04/18 00:07:14;;;;;;;2.57;1.83;;;7.30;1.00;;;;;;5097888;28;20190;-75
2022/04/18 00:09:40;;;;;;;2.17;1.80;;;7.40;1.00;;;;;;5097654;28;20194;-75
2022/04/18 00:12:06;;;;;;;1.97;1.77;;;7.40;99.90;;;;;;5097772;28;20181;-75
2022/04/18 00:14:31;;;;;;;2.97;1.83;;;7.50;99.90;;;;;;5098142;28;20545;-75
2022/04/18 00:16:58;;;;;;;2.60;1.70;;;7.50;99.90;;;;;;5098174;28;20327;-75
2022/04/18 00:19:23;;;;;;;2.50;1.70;;;7.50;99.90;;;;;;5098574;28;20186;-76
2022/04/18 00:21:50;;;;;;;3.40;1.90;;;7.50;99.90;;;;;;5098954;28;20185;-76
2022/04/18 00:24:17;;;;;;;3.17;1.87;;;7.60;99.90;;;;;;5098772;28;20176;-75
2022/04/18 00:26:43;;;;;;;3.00;1.87;;;7.60;1.00;;;;;;5079986;28;20712;-75
2022/04/18 00:29:09;;;;;;;2.83;1.57;;;7.70;1.00;;;;;;5079415;28;20182;-75
2022/04/18 00:31:35;;;;;;;4.50;1.80;;;7.70;1.00;;;;;;5097637;28;20240;-75
2022/04/18 00:34:01;;;;;;;3.53;1.77;;;7.70;99.90;;;;;;5080428;28;20178;-75
2022/04/18 00:36:27;;;;;;;3.47;1.87;;;7.60;99.90;;;;;;5098841;28;20222;-75
2022/04/18 00:38:52;;;;;;;2.83;2.10;;;7.70;1.00;;;;;;5078843;28;20198;-75
2022/04/18 00:41:18;;;;;;;3.33;1.73;;;7.60;98.60;;;;;;5079871;28;20178;-75
2022/04/18 00:43:45;;;;;;;2.97;1.57;;;7.60;99.90;;;;;;5098315;28;20187;-75
2022/04/18 00:46:12;;;;;;;4.77;1.60;;;7.60;99.90;;;;;;5098084;28;20218;-75
2022/04/18 00:48:38;;;;;;;2.57;1.93;;;7.60;99.90;;;;;;5097752;28;20696;-75
2022/04/18 00:51:06;;;;;;;2.80;1.57;;;7.60;99.90;;;;;;5080454;28;20228;-76
2022/04/18 00:53:32;;;;;;;2.80;1.50;;;7.70;99.90;;;;;;5079848;28;20243;-75
2022/04/18 00:55:58;;;;;;;2.07;1.70;;;7.60;99.90;;;;;;5096791;28;20286;-75
2022/04/18 00:58:24;;;;;;;4.43;1.90;;;7.60;99.90;;;;;;5097446;28;20598;-75
2022/04/18 01:00:49;;;;;;;2.33;1.83;;;7.60;1.00;;;;;;5097505;28;20209;-75
2022/04/18 01:03:15;;;;;;;3.63;2.00;;;7.60;1.00;;;;;;5097347;28;20603;-76
2022/04/18 01:05:41;;;;;;;3.70;1.90;;;7.50;1.00;;;;;;5079537;28;20210;-75
2022/04/18 01:08:07;;;;;;;3.30;2.03;;;7.50;1.00;;;;;;5097652;28;20194;-75
2022/04/18 01:10:33;;;;;;;2.30;1.70;;;7.50;1.00;;;;;;5097188;28;20184;-75
2022/04/18 01:12:58;;;;;;;2.00;1.50;;;7.50;99.90;;;;;;5078705;28;20186;-75
2022/04/18 01:15:24;;;;;;;3.27;1.87;;;7.60;99.90;;;;;;5096974;28;20579;-76
2022/04/18 01:17:49;;;;;;;2.53;1.80;;;7.60;99.90;;;;;;5096927;28;20214;-75
2022/04/18 01:20:15;;;;;;;3.47;1.60;;;7.60;1.00;;;;;;5097195;28;20181;-75
2022/04/18 01:22:42;;;;;;;2.07;1.40;;;7.50;1.00;;;;;;5097384;28;20184;-75
2022/04/18 01:30:37;;;;;;;1.80;1.57;;;7.40;99.90;;;;;;5097539;28;20165;-75
2022/04/18 01:33:02;;;;;;;4.43;1.73;;;7.40;99.90;;;;;;5096544;28;20178;-75
2022/04/18 01:35:28;;;;;;;4.03;1.70;;;7.40;1.00;;;;;;5078052;28;20216;-75
2022/04/18 01:37:53;;;;;;;3.00;1.63;;;7.30;99.90;;;;;;5078771;28;20194;-75
2022/04/18 01:40:19;;;;;;;2.97;1.60;;;7.30;99.90;;;;;;5078292;28;20284;-74
2022/04/18 01:42:45;;;;;;;4.33;1.63;;;7.20;1.00;;;;;;5096564;28;20196;-75
2022/04/18 01:45:11;;;;;;;2.07;1.40;;;7.20;99.90;;;;;;5097276;28;20239;-75
2022/04/18 01:47:37;;;;;;;2.27;1.40;;;7.20;1.00;;;;;;5096066;28;20198;-75
2022/04/18 01:50:03;;;;;;;3.23;1.97;;;7.10;1.00;;;;;;5096914;28;20177;-76
2022/04/18 01:52:28;;;;;;;2.17;1.60;;;7.00;1.00;;;;;;5078268;28;20178;-75
2022/04/18 01:54:54;;;;;;;1.97;1.60;;;7.00;1.00;;;;;;5096107;28;20206;-75
2022/04/18 01:57:19;;;;;;;3.27;1.83;;;7.00;99.90;;;;;;5077778;28;20238;-75
2022/04/18 01:59:45;;;;;;;2.30;1.80;;;7.00;99.90;;;;;;5096385;28;20186;-75
2022/04/18 02:02:10;;;;;;;2.47;2.00;;;7.00;99.90;;;;;;5096723;28;20608;-75
2022/04/18 02:04:36;;;;;;;2.60;1.57;;;7.00;99.90;;;;;;5078121;28;20186;-75
2022/04/18 02:07:02;;;;;;;2.63;1.80;;;7.00;99.90;;;;;;5096849;28;20198;-75
2022/04/18 02:09:28;;;;;;;2.70;1.60;;;7.00;99.90;;;;;;5079108;28;20228;-75
2022/04/18 02:11:53;;;;;;;1.90;1.57;;;6.90;99.90;;;;;;5078906;28;20182;-75
2022/04/18 02:14:19;;;;;;;4.57;1.60;;;6.90;99.90;;;;;;5097536;28;20193;-75
2022/04/18 02:16:44;;;;;;;2.93;1.70;;;6.90;1.00;;;;;;5078781;28;20699;-74
2022/04/18 02:19:10;;;;;;;1.87;1.50;;;6.80;93.90;;;;;;5097075;28;20196;-75
2022/04/18 02:21:36;;;;;;;4.63;1.70;;;6.80;1.00;;;;;;5096806;28;20181;-75
2022/04/18 02:24:02;;;;;;;1.60;1.50;;;6.70;99.90;;;;;;5096961;28;20244;-75
2022/04/18 02:26:27;;;;;;;2.00;1.50;;;6.60;99.90;;;;;;5096513;28;20248;-75
2022/04/18 02:28:53;;;;;;;1.87;1.50;;;6.60;1.00;;;;;;5096327;28;20256;-75
2022/04/18 02:31:18;;;;;;;2.17;1.60;;;6.50;1.00;;;;;;5077350;28;20178;-75
2022/04/18 02:33:44;;;;;;;1.60;1.43;;;6.50;99.90;;;;;;5077454;28;20224;-75
2022/04/18 02:36:09;;;;;;;2.07;1.87;;;6.40;99.90;;;;;;5095607;28;20692;-75
2022/04/18 02:38:35;;;;;;;3.07;1.70;;;6.40;99.90;;;;;;5077788;28;20182;-75
2022/04/18 02:41:00;;;;;;;3.77;2.00;;;6.30;1.00;;;;;;5096000;28;20227;-75
2022/04/18 02:43:26;;;;;;;2.70;1.77;;;6.30;1.00;;;;;;5095336;28;20189;-75
2022/04/18 02:45:52;;;;;;;3.50;1.50;;;6.30;99.90;;;;;;5077356;28;20678;-75
2022/04/18 02:48:17;;;;;;;2.20;1.40;;;6.20;99.90;;;;;;5095256;28;20298;-75
2022/04/18 02:50:43;;;;;;;4.10;1.60;;;6.10;1.00;;;;;;5095468;28;20186;-74
2022/04/18 02:53:08;;;;;;;1.73;1.30;;;6.10;1.00;;;;;;5095511;28;20166;-75
2022/04/18 02:55:34;;;;;;;1.70;1.40;;;6.00;1.00;;;;;;5077301;28;20657;-75
2022/04/18 02:58:00;;;;;;;2.37;1.57;;;6.00;1.00;;;;;;5095336;28;20609;-75
2022/04/18 03:00:25;;;;;;;3.10;1.57;;;6.00;1.00;;;;;;5077538;28;20182;-75
2022/04/18 03:02:51;;;;;;;2.13;1.40;;;5.90;9.60;;;;;;5081503;28;20215;-75
2022/04/18 03:05:16;;;;;;;3.60;1.80;;;5.90;99.90;;;;;;5099678;28;20183;-75
2022/04/18 03:07:42;;;;;;;3.50;1.70;;;5.90;99.90;;;;;;5083383;28;20221;-76
2022/04/18 03:10:08;;;;;;;3.57;1.90;;;5.90;18.30;;;;;;5082046;28;20257;-75
2022/04/18 03:12:34;;;;;;;2.03;1.53;;;5.80;1.00;;;;;;5098850;28;20650;-75
2022/04/18 03:15:00;;;;;;;4.80;1.67;;;5.80;1.00;;;;;;5072956;28;20301;-75
2022/04/18 03:17:26;;;;;;;2.63;1.43;;;5.70;39.50;;;;;;5099278;28;20323;-75
2022/04/18 03:19:52;;;;;;;2.30;1.60;;;5.70;1.00;;;;;;5099192;28;20649;-75
2022/04/18 03:22:19;;;;;;;2.97;1.73;;;5.60;1.00;;;;;;5081044;28;20267;-75
2022/04/18 03:24:45;;;;;;;2.00;1.80;;;5.50;1.00;;;;;;5099203;28;20174;-75
2022/04/18 03:27:11;;;;;;;2.77;1.37;;;5.50;1.00;;;;;;5081004;28;20782;-75
2022/04/18 03:29:37;;;;;;;2.33;1.80;;;5.50;1.00;;;;;;5098809;28;20667;-75
2022/04/18 03:32:04;;;;;;;2.43;1.63;;;5.50;99.90;;;;;;5081469;28;20176;-75
2022/04/18 03:34:30;;;;;;;4.80;1.90;;;5.40;1.00;;;;;;5099196;28;20170;-75
2022/04/18 03:39:51;;;;;;;2.77;1.50;;;5.30;99.90;;;;;;5099421;28;20237;-75
2022/04/18 03:42:19;;;;;;;3.07;1.80;;;5.30;1.00;;;;;;5099129;28;20166;-75
2022/04/18 03:44:46;;;;;;;2.03;1.57;;;5.20;1.00;;;;;;5099188;28;20162;-75
2022/04/18 03:47:15;;;;;;;4.50;1.43;;;5.30;1.00;;;;;;5080721;28;20210;-75
2022/04/18 03:49:41;;;;;;;1.83;1.43;;;5.30;1.00;;;;;;5080774;28;20213;-75
2022/04/18 03:52:08;;;;;;;2.53;1.77;;;5.20;99.90;;;;;;5099107;28;20560;-76
2022/04/18 03:54:35;;;;;;;3.83;1.73;;;5.30;99.90;;;;;;5080177;28;20649;-76
2022/04/18 03:57:01;;;;;;;3.33;1.83;;;5.20;1.00;;;;;;5079842;28;20215;-76
2022/04/18 03:59:27;;;;;;;3.63;1.73;;;5.20;1.00;;;;;;5097818;28;20212;-76
2022/04/18 04:01:53;;;;;;;4.33;2.07;;;5.20;99.90;;;;;;5097865;28;20200;-76
2022/04/18 04:04:19;;;;;;;2.17;1.80;;;5.10;52.70;;;;;;5098685;28;20261;-72
2022/04/18 04:06:44;;;;;;;3.17;1.80;;;5.10;99.90;;;;;;5080172;28;20275;-74
2022/04/18 04:09:10;;;;;;;2.27;1.50;;;5.10;99.90;;;;;;5098275;28;20188;-76
2022/04/18 04:11:36;;;;;;;3.10;1.70;;;5.10;1.00;;;;;;5079465;28;20214;-76
2022/04/18 04:14:01;;;;;;;1.93;1.70;;;5.10;99.90;;;;;;5097420;28;20192;-75
2022/04/18 04:16:27;;;;;;;3.07;1.87;;;5.10;99.90;;;;;;5099641;28;20186;-75
2022/04/18 04:18:52;;;;;;;2.90;1.80;;;5.00;1.00;;;;;;5098873;28;20645;-75
2022/04/18 04:21:18;;;;;;;2.07;1.50;;;5.00;99.90;;;;;;5080331;28;20652;-75
2022/04/18 04:23:44;;;;;;;3.40;1.60;;;4.90;1.00;;;;;;5080071;28;20178;-75
2022/04/18 04:26:09;;;;;;;2.20;1.80;;;4.90;1.00;;;;;;5097613;28;20287;-75
2022/04/18 04:28:35;;;;;;;2.90;1.80;;;4.90;1.00;;;;;;5098028;28;20227;-75
2022/04/18 04:31:03;;;;;;;1.80;1.40;;;4.80;99.90;;;;;;5098096;28;20185;-75
2022/04/18 04:33:32;;;;;;;2.00;1.50;;;4.80;1.00;;;;;;5098276;28;20177;-75
2022/04/18 04:35:58;;;;;;;4.20;1.80;;;4.70;1.00;;;;;;5079782;28;20202;-75
2022/04/18 04:38:27;;;;;;;2.87;1.50;;;4.70;1.00;;;;;;5098502;28;20676;-75
2022/04/18 04:40:53;;;;;;;2.87;1.83;;;4.60;1.00;;;;;;5079624;28;20192;-74
2022/04/18 04:43:20;;;;;;;2.87;1.63;;;4.60;1.00;;;;;;5097850;28;20261;-76
2022/04/18 04:45:46;;;;;;;2.63;1.40;;;4.70;99.90;;;;;;5097585;28;20605;-74
2022/04/18 04:48:11;;;;;;;2.50;1.67;;;4.60;1.00;;;;;;5097555;28;20212;-75
2022/04/18 04:50:39;;;;;;;2.27;1.43;;;4.70;99.90;;;;;;5079126;28;20623;-74
2022/04/18 04:53:05;;;;;;;1.50;1.40;;;4.60;99.90;;;;;;5079317;28;20175;-74
2022/04/18 04:55:30;;;;;;;3.20;1.77;;;4.60;99.90;;;;;;5097551;28;20599;-74
2022/04/18 04:57:56;;;;;;;2.90;1.67;;;4.60;99.90;;;;;;5097500;28;20189;-74
2022/04/18 05:00:22;;;;;;;2.67;1.80;;;4.50;99.90;;;;;;5097778;28;20179;-74
2022/04/18 05:02:47;;;;;;;2.93;1.80;;;4.50;1.00;;;;;;5096715;28;20174;-74
2022/04/18 05:05:13;;;;;;;2.27;1.80;;;4.50;1.00;;;;;;5079202;28;20199;-74
2022/04/18 05:07:39;;;;;;;2.20;1.83;;;4.50;1.00;;;;;;5096783;28;20210;-74
2022/04/18 05:10:05;;;;;;;2.10;1.70;;;4.50;1.00;;;;;;5097491;28;20175;-74
2022/04/18 05:12:32;;;;;;;4.23;1.80;;;4.40;1.00;;;;;;5097697;28;20182;-74
2022/04/18 05:15:04;;;;;;;2.77;1.87;;;4.40;1.00;;;;;;5095340;28;20170;-75
2022/04/18 05:17:30;;;;;;;3.00;1.80;;;4.40;1.00;;;;;;5078449;28;20685;-75
2022/04/18 05:19:56;;;;;;;2.37;1.70;;;4.50;99.90;;;;;;5078857;28;20182;-74
2022/04/18 05:22:22;;;;;;;2.50;1.77;;;4.40;1.00;;;;;;5078824;28;20186;-74
2022/04/18 05:24:47;;;;;;;2.20;1.70;;;4.40;1.00;;;;;;5096662;28;20181;-75
2022/04/18 05:27:15;;;;;;;2.13;1.73;;;4.50;1.00;;;;;;5077155;22;20230;-93
2022/04/18 05:29:44;;;;;;;3.00;2.07;;;4.50;99.90;;;;;;5072599;28;20205;-93
2022/04/18 05:32:11;;;;;;;2.83;2.00;;;4.50;99.90;;;;;;5101705;22;20210;-76
2022/04/18 05:34:36;;;;;;;3.30;1.70;;;4.50;1.00;;;;;;5090889;28;20167;-76
2022/04/18 05:37:02;;;;;;;3.93;1.60;;;4.50;1.00;;;;;;5094060;28;20620;-76
2022/04/18 05:39:28;;;;;;;1.70;1.60;;;4.50;1.00;;;;;;5094007;28;20665;-76
2022/04/18 05:41:53;;;;;;;3.00;1.53;;;4.50;1.00;;;;;;5093999;28;20178;-76
2022/04/18 05:44:19;;;;;;;2.60;1.80;;;4.60;1.00;;;;;;5075856;28;20189;-76
2022/04/18 05:46:44;;;;;;;2.07;1.87;;;4.60;11.20;;;;;;5075767;28;20519;-76
2022/04/18 05:49:10;;;;;;;2.03;1.80;;;4.60;1.00;;;;;;5093903;28;20649;-76
2022/04/18 05:51:37;;;;;;;2.77;1.90;;;4.60;1.00;;;;;;5094146;28;20645;-76
2022/04/18 05:54:03;;;;;;;3.27;1.63;;;4.60;1.00;;;;;;5094000;28;20589;-76
2022/04/18 05:56:29;;;;;;;3.20;1.43;;;4.70;1.00;;;;;;5093843;28;20194;-76
2022/04/18 05:58:55;;;;;;;1.83;1.67;;;4.70;1.00;;;;;;5093868;28;20210;-76
2022/04/18 06:01:21;;;;;;;2.13;1.40;;;4.80;1.00;;;;;;5075721;28;20277;-76
2022/04/18 06:03:47;;;;;;;4.50;1.80;;;4.80;1.00;;;;;;5093841;28;20664;-76
2022/04/18 06:06:13;;;;;;;2.73;1.60;;;4.80;1.00;;;;;;5093667;28;20202;-75
2022/04/18 06:08:39;;;;;;;2.20;1.90;;;4.90;1.00;;;;;;5093582;28;20202;-76
2022/04/18 06:11:04;;;;;;;2.17;1.73;;;4.90;1.00;;;;;;5093944;28;20720;-76
2022/04/18 06:13:30;;;;;;;3.20;1.73;;;5.00;1.00;;;;;;5093711;28;20179;-76
2022/04/18 06:15:56;;;;;;;3.43;2.13;;;5.10;1.00;;;;;;5075223;28;20532;-76
2022/04/18 06:18:21;;;;;;;4.70;2.83;;;5.10;1.00;;;;;;5093921;28;20209;-76
2022/04/18 06:20:47;;;;;;;3.53;2.20;;;5.20;1.00;;;;;;5093344;28;20262;-76
2022/04/18 06:23:15;;;;;;;2.77;1.80;;;5.30;1.00;;;;;;5093279;28;20193;-76
2022/04/18 06:25:41;;;;;;;3.07;1.83;;;5.50;99.90;;;;;;5093309;28;20182;-76
2022/04/18 06:28:06;;;;;;;7.80;2.00;;;5.60;1.00;;;;;;5075084;28;20727;-76
2022/04/18 06:30:32;;;;;;;3.23;2.03;;;5.80;1.00;;;;;;5093289;28;20170;-76
2022/04/18 06:32:58;;;;;;;2.70;2.03;;;6.00;99.90;;;;;;5093094;28;20247;-76
2022/04/18 06:35:24;;;;;;;3.70;2.03;;;6.10;1.00;;;;;;5092670;28;20180;-76
2022/04/18 06:37:49;;;;;;;2.73;2.10;;;6.30;1.00;;;;;;5092904;28;20205;-76
2022/04/18 06:40:15;;;;;;;2.37;1.70;;;6.50;1.00;;;;;;5093131;28;20184;-76
2022/04/18 06:42:40;;;;;;;3.37;1.87;;;6.60;99.90;;;;;;5093063;28;20182;-76
2022/04/18 06:45:06;;;;;;;4.03;1.90;;;6.80;21.30;;;;;;5075056;28;20714;-76
2022/04/18 06:47:35;;;;;;;5.03;1.77;;;7.00;1.00;;;;;;5074823;28;20208;-76
2022/04/18 06:50:02;;;;;;;3.97;1.70;;;7.10;1.00;;;;;;5074943;28;20182;-76
2022/04/18 06:52:27;;;;;;;2.70;1.90;;;7.20;99.90;;;;;;5093222;28;20181;-76
2022/04/18 06:54:53;;;;;;;2.10;1.40;;;7.40;1.00;;;;;;5092942;28;20186;-76
2022/04/18 06:57:18;;;;;;;2.07;1.50;;;7.60;1.00;;;;;;5074821;28;20209;-76
2022/04/18 06:59:46;;;;;;;2.30;1.43;;;7.70;99.90;;;;;;5074875;28;20207;-76
2022/04/18 07:02:11;;;;;;;2.50;1.70;;;7.80;99.90;;;;;;5092858;28;20173;-76
2022/04/18 07:04:37;;;;;;;1.67;1.53;;;8.00;1.00;;;;;;5093149;28;20536;-76
2022/04/18 07:07:05;;;;;;;3.20;1.60;;;8.10;1.00;;;;;;5074637;28;20210;-76
2022/04/18 07:09:31;;;;;;;2.47;1.60;;;8.30;1.00;;;;;;5074777;28;20179;-76
2022/04/18 07:11:56;;;;;;;3.00;1.60;;;8.50;1.00;;;;;;5074668;28;20226;-76
2022/04/18 07:14:22;;;;;;;2.40;1.63;;;8.60;99.90;;;;;;5092852;28;20519;-76
2022/04/18 07:16:49;;;;;;;3.10;1.60;;;8.80;99.90;;;;;;5092359;28;20199;-75
2022/04/18 07:19:14;;;;;;;1.80;1.37;;;8.90;99.90;;;;;;5092589;28;20173;-75
2022/04/18 07:21:41;;;;;;;2.20;1.60;;;9.00;99.90;;;;;;5092749;28;20257;-75
2022/04/18 07:24:07;;;;;;;2.33;1.27;;;9.10;99.90;;;;;;5074823;28;20182;-74
2022/04/18 07:26:32;;;;;;;1.30;1.20;;;9.20;99.90;;;;;;5092417;28;20278;-78
2022/04/18 07:28:58;;;;;;;2.97;1.50;;;9.30;99.90;;;;;;5074380;28;20201;-75
2022/04/18 07:31:23;;;;;;;3.63;1.60;;;9.50;83.70;;;;;;5092785;28;20217;-75
2022/04/18 07:33:49;;;;;;;2.13;1.50;;;9.60;1.00;;;;;;5092445;28;20243;-76
2022/04/18 07:36:14;;;;;;;1.70;1.50;;;9.70;1.00;;;;;;5074260;28;20255;-76
2022/04/18 07:38:48;;;;;;;4.50;1.53;;;9.80;1.00;;;;;;5074758;28;20182;-76
2022/04/18 07:41:15;;;;;;;2.17;1.30;;;9.90;1.00;;;;;;5092449;28;20241;-75
2022/04/18 07:43:41;;;;;;;1.93;1.50;;;10.00;1.00;;;;;;5092426;28;20202;-75
2022/04/18 07:46:07;;;;;;;2.30;1.50;;;10.10;1.00;;;;;;5092230;28;20229;-76
2022/04/18 07:48:32;;;;;;;3.50;1.87;;;10.20;1.00;;;;;;5095223;28;20206;-76
2022/04/18 07:53:42;;;;;;;2.47;1.23;;;10.40;1.00;;;;;;5095979;28;20699;-75
2022/04/18 07:56:08;;;;;;;2.90;1.60;;;10.50;1.00;;;;;;5077745;28;20198;-75
2022/04/18 07:58:34;;;;;;;2.97;1.40;;;10.60;1.00;;;;;;5077595;28;20193;-76
2022/04/18 08:00:59;;;;;;;1.83;1.57;;;10.70;1.00;;;;;;5095816;28;20192;-76
2022/04/18 08:03:25;;;;;;;3.43;1.97;;;10.80;99.90;;;;;;5095224;28;20217;-75
2022/04/18 08:05:50;;;;;;;3.30;1.70;;;10.90;99.90;;;;;;5077439;28;20183;-76
2022/04/18 08:08:16;;;;;;;1.73;1.30;;;11.00;99.90;;;;;;5095671;28;20636;-76
2022/04/18 08:10:41;;;;;;;4.53;1.70;;;11.10;99.90;;;;;;5077467;28;20714;-75
2022/04/18 08:13:07;;;;;;;1.83;1.47;;;11.10;99.90;;;;;;5095532;28;20174;-76
2022/04/18 08:15:33;;;;;;;2.27;1.60;;;11.30;99.90;;;;;;5095485;28;20178;-76
2022/04/18 08:17:59;;;;;;;2.60;1.70;;;11.30;99.90;;;;;;5077256;28;20581;-75
2022/04/18 08:20:25;;;;;;;2.77;1.40;;;11.40;99.90;;;;;;5095388;28;20182;-75
2022/04/18 08:22:51;;;;;;;2.50;1.60;;;11.50;99.90;;;;;;5095291;28;20174;-77
2022/04/18 08:25:17;;;;;;;1.77;1.47;;;11.50;99.90;;;;;;5077187;28;20193;-76
2022/04/18 08:27:42;;;;;;;3.23;1.77;;;11.60;99.90;;;;;;5095116;28;20248;-75
2022/04/18 08:30:08;;;;;;;3.20;1.50;;;11.70;99.90;;;;;;5095234;28;20228;-76
2022/04/18 08:32:38;;;;;;;2.37;1.40;;;11.80;1.00;;;;;;5076938;28;20251;-75
2022/04/18 08:35:05;;;;;;;2.80;1.30;;;11.90;1.00;;;;;;5087340;28;20261;-75
2022/04/18 08:37:34;;;;;;;4.43;1.57;;;12.10;1.00;;;;;;5095023;28;20236;-75
2022/04/18 08:40:05;;;;;;;2.87;1.57;;;12.10;30.40;;;;;;5086736;28;20177;-75
2022/04/18 08:42:35;;;;;;;2.67;1.60;;;12.10;35.10;;;;;;5077399;28;20174;-76
2022/04/18 08:45:09;;;;;;;3.73;1.83;;;12.30;1.00;;;;;;5077162;28;20553;-76
2022/04/18 08:53:11;;;;;;;3.33;1.77;;;12.60;1.00;;;;;;5087731;28;20212;-76
2022/04/18 08:55:37;;;;;;;3.07;1.80;;;12.60;1.00;;;;;;5094723;28;20243;-76
2022/04/18 08:58:03;;;;;;;3.60;1.50;;;12.70;1.00;;;;;;5094609;28;20194;-75
2022/04/18 09:00:29;;;;;;;2.87;1.80;;;12.90;1.00;;;;;;5093948;28;20178;-76
2022/04/18 09:02:54;;;;;;;2.33;1.50;;;12.90;1.00;;;;;;5094720;28;20191;-76
2022/04/18 09:05:21;;;;;;;2.07;1.30;;;13.00;1.00;;;;;;5094782;28;20178;-75
2022/04/18 09:08:05;;;;;;;2.83;1.73;;;13.10;1.00;;;;;;5076460;28;20216;-75
2022/04/18 09:10:31;;;;;;;2.87;1.60;;;13.20;1.00;;;;;;5095048;28;20693;-75
2022/04/18 09:13:07;;;;;;;3.13;1.60;;;13.40;1.00;;;;;;5094705;28;20253;-76
2022/04/18 09:15:43;;;;;;;2.17;1.70;;;13.40;1.00;;;;;;5076491;28;20261;-75
2022/04/18 09:18:12;;;;;;;2.33;1.67;;;13.40;1.00;;;;;;5087285;28;20704;-76
2022/04/18 09:20:45;;;;;;;3.40;1.83;;;13.50;1.00;;;;;;5076321;28;20235;-76
2022/04/18 09:23:30;;;;;;;3.67;1.87;;;13.60;1.00;;;;;;5094788;28;20240;-76
2022/04/18 09:26:09;;;;;;;3.20;1.70;;;13.70;1.00;;;;;;5094367;28;20232;-76
2022/04/18 09:28:37;;;;;;;2.90;1.50;;;13.80;1.00;;;;;;5094281;28;20680;-75
2022/04/18 09:31:12;;;;;;;4.10;1.70;;;13.90;99.90;;;;;;5094632;28;20574;-75
2022/04/18 09:33:37;;;;;;;2.83;1.63;;;13.90;99.90;;;;;;5075922;28;20204;-75
2022/04/18 09:36:16;;;;;;;1.93;1.50;;;14.10;99.90;;;;;;5075975;28;20182;-76
2022/04/18 09:38:50;;;;;;;2.67;1.80;;;14.10;99.90;;;;;;5076034;28;20178;-75
2022/04/18 09:41:21;;;;;;;2.20;1.40;;;14.20;99.90;;;;;;5094422;28;20249;-75
2022/04/18 09:43:49;;;;;;;1.53;1.33;;;14.20;99.90;;;;;;5094412;28;20227;-76
2022/04/18 09:46:16;;;;;;;2.63;1.57;;;14.40;99.90;;;;;;5094005;28;20202;-76
2022/04/18 09:48:43;;;;;;;3.93;1.40;;;14.60;99.90;;;;;;5075551;28;20218;-76
2022/04/18 09:51:17;;;;;;;2.70;1.53;;;14.70;99.90;;;;;;5093837;28;20209;-76
2022/04/18 09:53:46;;;;;;;2.70;1.50;;;14.70;99.90;;;;;;5093751;28;20162;-76
2022/04/18 09:56:17;;;;;;;2.53;1.60;;;14.70;99.90;;;;;;5093654;28;20265;-76
2022/04/18 09:58:43;;;;;;;3.47;1.37;;;14.70;99.90;;;;;;5093939;28;20265;-76
2022/04/18 10:01:11;;;;;;;3.37;1.47;;;14.80;99.90;;;;;;5093825;28;20551;-76
2022/04/18 10:03:37;;;;;;;1.73;1.33;;;14.90;99.90;;;;;;5093518;28;20242;-76
2022/04/18 10:06:05;;;;;;;3.07;1.53;;;15.00;99.90;;;;;;5093779;28;20262;-75
2022/04/18 10:08:31;;;;;;;2.33;1.43;;;15.00;99.90;;;;;;5093357;28;20665;-76
2022/04/18 10:10:58;;;;;;;3.93;1.67;;;15.10;99.90;;;;;;5093234;28;20181;-76
2022/04/18 10:13:25;;;;;;;1.90;1.47;;;15.10;99.90;;;;;;5094966;28;20182;-76
2022/04/18 10:15:51;;;;;;;2.43;1.53;;;15.20;99.90;;;;;;5076875;28;20218;-76
2022/04/18 10:18:18;;;;;;;3.17;1.63;;;15.20;99.90;;;;;;5094561;28;20175;-76
2022/04/18 10:21:08;;;;;;;2.20;1.77;;;15.30;99.90;;;;;;5095112;28;20262;-76
2022/04/18 10:24:04;;;;;;;2.10;1.60;;;15.40;99.90;;;;;;5094334;28;20254;-76
2022/04/18 10:26:51;;;;;;;2.43;1.50;;;15.40;99.90;;;;;;5072829;28;20267;-76
2022/04/18 10:29:20;;;;;;;3.60;1.80;;;15.40;99.90;;;;;;5087104;28;20251;-76
2022/04/18 10:31:46;;;;;;;1.83;1.53;;;15.50;99.90;;;;;;5074910;28;20182;-76
2022/04/18 10:34:13;;;;;;;1.93;1.30;;;15.50;99.90;;;;;;5092941;28;20218;-76
2022/04/18 10:36:46;;;;;;;3.53;1.63;;;15.60;99.90;;;;;;5093241;28;20193;-76
2022/04/18 10:39:11;;;;;;;3.77;1.70;;;15.70;99.90;;;;;;5093064;28;20167;-77
2022/04/18 10:41:46;;;;;;;2.20;1.70;;;15.80;99.90;;;;;;5074893;28;20240;-77
2022/04/18 10:44:12;;;;;;;2.57;1.10;;;15.90;99.90;;;;;;5074974;28;20216;-77
2022/04/18 10:46:40;;;;;;;2.83;1.40;;;16.00;99.90;;;;;;5092587;28;20624;-76
2022/04/18 10:49:27;;;;;;;2.70;1.10;;;16.10;99.90;;;;;;5092642;28;20205;-76
2022/04/18 10:51:54;;;;;;;2.50;1.60;;;16.10;99.90;;;;;;5093210;28;20250;-76
2022/04/18 10:54:21;;;;;;;3.67;1.60;;;16.20;99.90;;;;;;5092911;28;20166;-76
2022/04/18 10:56:50;;;;;;;1.40;1.20;;;16.40;99.90;;;;;;5074548;28;20201;-76
2022/04/18 10:59:17;;;;;;;1.50;1.10;;;16.50;99.90;;;;;;5092814;28;20178;-77
2022/04/18 11:01:43;;;;;;;1.73;1.20;;;16.60;99.90;;;;;;5092675;28;20182;-77
2022/04/18 11:04:10;;;;;;;2.20;1.10;;;16.60;99.90;;;;;;5074646;28;20178;-77
2022/04/18 11:06:40;;;;;;;2.67;1.20;;;16.60;99.90;;;;;;5092796;28;20200;-76
2022/04/18 11:09:14;;;;;;;1.73;1.10;;;16.60;99.90;;;;;;5074449;28;20202;-77
2022/04/18 11:12:07;;;;;;;2.87;1.50;;;16.70;99.90;;;;;;5092959;28;20538;-77
2022/04/18 11:14:38;;;;;;;2.03;1.53;;;16.80;99.90;;;;;;5075715;28;20190;-77
2022/04/18 11:17:06;;;;;;;2.43;1.67;;;16.80;99.90;;;;;;5084874;28;20206;-77
2022/04/18 11:19:39;;;;;;;2.60;1.43;;;16.80;99.90;;;;;;5092654;28;20174;-77
2022/04/18 11:22:18;;;;;;;2.00;1.40;;;16.80;99.90;;;;;;5067937;28;20277;-77
2022/04/18 11:24:54;;;;;;;2.00;1.20;;;16.80;99.90;;;;;;5097470;28;20189;-77
2022/04/18 11:27:26;;;;;;;2.47;1.40;;;16.80;99.90;;;;;;5096673;28;20262;-77
2022/04/18 11:30:05;;;;;;;1.47;1.33;;;16.80;99.90;;;;;;5097388;28;20530;-77
2022/04/18 11:32:34;;;;;;;2.03;1.60;;;16.90;99.90;;;;;;5092587;22;20226;-76
2022/04/18 11:35:02;;;;;;;2.10;1.63;;;16.90;99.90;;;;;;5096644;28;20167;-77
2022/04/18 11:37:40;;;;;;;2.70;1.53;;;16.90;99.90;;;;;;5096422;28;20256;-77
2022/04/18 11:40:11;;;;;;;1.77;1.50;;;16.90;99.90;;;;;;5095112;28;20201;-76
2022/04/18 11:42:39;;;;;;;1.83;1.17;;;16.90;99.90;;;;;;5095337;28;20210;-76
2022/04/18 11:45:07;;;;;;;1.70;1.40;;;17.10;99.90;;;;;;5096170;28;20236;-76
2022/04/18 11:47:44;;;;;;;3.23;1.27;;;17.20;99.90;;;;;;5077961;28;20218;-76
2022/04/18 11:50:10;;;;;;;2.30;1.40;;;17.30;99.90;;;;;;5077994;28;20181;-76
2022/04/18 11:52:39;;;;;;;1.47;1.30;;;17.40;99.90;;;;;;5096077;28;20272;-76
2022/04/18 11:55:19;;;;;;;2.07;1.20;;;17.50;99.90;;;;;;5096052;28;20748;-76
2022/04/18 11:57:47;;;;;;;2.37;1.37;;;17.50;99.90;;;;;;5096027;28;20175;-76
2022/04/18 12:00:14;;;;;;;2.63;1.80;;;17.50;99.90;;;;;;5095958;28;20590;-77
2022/04/18 12:08:12;;;;;;;2.60;1.87;;;17.60;99.90;;;;;;5096130;28;20580;-76
2022/04/18 12:10:42;;;;;;;1.67;1.43;;;17.60;99.90;;;;;;5095965;28;20162;-75
2022/04/18 12:13:13;;;;;;;2.40;1.73;;;17.70;99.90;;;;;;5077574;28;20198;-76
2022/04/18 12:15:41;;;;;;;3.10;1.73;;;17.80;99.90;;;;;;5095708;28;20167;-76
2022/04/18 12:18:15;;;;;;;3.63;1.90;;;17.90;99.90;;;;;;5095873;28;20186;-75
2022/04/18 12:20:44;;;;;;;1.77;1.60;;;17.90;99.90;;;;;;5095652;28;20501;-76
2022/04/18 12:23:25;;;;;;;2.07;1.50;;;18.00;99.90;;;;;;5077357;28;20202;-76
2022/04/18 12:25:52;;;;;;;4.13;1.80;;;18.00;99.90;;;;;;5095553;28;20239;-75
2022/04/18 12:28:26;;;;;;;1.93;1.60;;;18.00;99.90;;;;;;5095510;28;20198;-76
2022/04/18 12:30:52;;;;;;;1.77;1.63;;;18.10;99.90;;;;;;5095886;28;20161;-76
2022/04/18 12:33:23;;;;;;;2.07;1.63;;;18.20;99.90;;;;;;5094642;28;20210;-76
2022/04/18 12:35:51;;;;;;;2.00;1.70;;;18.10;99.90;;;;;;5077017;28;20185;-76
2022/04/18 12:38:18;;;;;;;4.67;1.70;;;18.10;99.90;;;;;;5095308;28;20190;-76
2022/04/18 12:40:54;;;;;;;1.80;1.60;;;18.10;99.90;;;;;;5095334;28;20170;-76
2022/04/18 12:43:19;;;;;;;2.00;1.63;;;18.10;99.90;;;;;;5095251;28;20197;-76
2022/04/18 12:45:50;;;;;;;2.50;2.20;;;18.20;99.90;;;;;;5095626;28;20189;-77
2022/04/18 12:48:23;;;;;;;3.33;2.10;;;18.20;99.90;;;;;;5076869;28;20214;-76
2022/04/18 12:50:50;;;;;;;2.03;1.73;;;18.20;99.90;;;;;;5095249;28;20668;-76
2022/04/18 12:53:15;;;;;;;3.83;1.87;;;18.30;99.90;;;;;;5094977;28;20187;-76
2022/04/18 12:55:41;;;;;;;1.93;1.67;;;18.40;99.90;;;;;;5094987;28;20253;-76
2022/04/18 12:58:21;;;;;;;2.27;1.70;;;18.40;99.90;;;;;;5094841;28;20257;-76
2022/04/18 13:00:49;;;;;;;4.43;2.00;;;18.50;99.90;;;;;;5076762;28;20199;-77
2022/04/18 13:03:17;;;;;;;2.53;1.67;;;18.50;99.90;;;;;;5076588;28;20202;-76
2022/04/18 13:05:52;;;;;;;3.57;1.60;;;18.40;99.90;;;;;;5094991;28;20182;-76
2022/04/18 13:08:18;;;;;;;2.33;1.33;;;18.40;99.90;;;;;;5094861;28;20197;-76
2022/04/18 13:10:45;;;;;;;2.50;1.60;;;18.50;99.90;;;;;;5094729;28;20174;-76
2022/04/18 13:13:16;;;;;;;2.47;1.67;;;18.50;99.90;;;;;;5094820;28;20212;-76
2022/04/18 13:15:43;;;;;;;2.17;1.67;;;18.60;99.90;;;;;;5076541;28;20636;-76
2022/04/18 13:18:11;;;;;;;1.87;1.33;;;18.60;99.90;;;;;;5094532;28;20641;-76
2022/04/18 13:20:39;;;;;;;2.90;1.57;;;18.70;99.90;;;;;;5076340;28;20615;-76
2022/04/18 13:23:06;;;;;;;2.87;1.40;;;18.70;99.90;;;;;;5094469;28;20284;-76